Holy Cross Airport
PAHC : now visible

Airfield :











YOU CAN JOIN US ON...

 
LOGIN :

Register | Disclaimer

   EN    FR    IT 

 









Legend :    VFR   Marginal VFR   IFR   Intensive IFR   Very Intensive IFR
Visi :
Ceiling :
>= 8 km
>= 3000ft
5 to 8 km
1000 to 3000 ft
1500m to 5 km
500 to 1000 ft
800 to 1500m
200 to 500 ft
< 800m
< 200 ft
Symbols :   Thunderstorms  Fog  Heavy snow  Heavy precipitations  Wind > 20 kt






- Airport Elevation : 70 ft
- IATA code : HCR


PAHC - Holy Cross

CURRENT METAR :
  • 242356Z AUTO 03006KT 10SM CLR M13/M19 A3042 RMK AO2 SLP306 T11331189 11133 21250 58017 FZRANO

EXPIRED METARs :
  • 242256Z AUTO 35007KT 300V030 10SM CLR M16/M21 A3045 RMK AO2 SLP315 T11561206 FZRANO
  • 242156Z AUTO 00000KT 10SM CLR M14/M20 A3046 RMK AO2 SLP320 T11441200 FZRANO

TAF N/A



MET'MAP, your aeronautical weather chart ! - Copyright ORBIFLY December 2007 - Disclaimer

ORBIFLY MET'MAP TEAM :

Programming & Development : Alexandra Zaïnal
Concept & original design : Baudouin d'Aumeries
Assistance for programming : Marc-Olivier Méhu
Technical & hardware support : Manuel Goepfert

Contact : metmap@orbifly.com




SOURCES & CREDITS :

   NOAA       Earth
Advisory